createdAt,value
2022-10-25T00:05:25.212Z,2.23
2022-10-25T00:15:28.101Z,2.33
2022-10-25T00:25:29.710Z,1.87
2022-10-25T00:35:31.158Z,1.80
2022-10-25T00:45:32.646Z,1.80
2022-10-25T00:55:35.500Z,2.07
2022-10-25T01:05:38.037Z,2.20
2022-10-25T01:16:09.001Z,1.90
2022-10-25T01:26:19.336Z,2.00
2022-10-25T01:37:01.850Z,2.20
2022-10-25T01:47:17.389Z,2.80
2022-10-25T01:57:21.950Z,3.30
2022-10-25T02:07:38.308Z,3.27
2022-10-25T02:17:48.644Z,3.70
2022-10-25T02:27:53.997Z,5.00
2022-10-25T02:37:55.543Z,4.90
2022-10-25T02:47:56.999Z,5.50
2022-10-25T02:57:58.695Z,7.07
2022-10-25T03:08:00.196Z,7.90
2022-10-25T03:18:01.636Z,8.80
2022-10-25T03:28:04.274Z,9.73
2022-10-25T03:38:05.752Z,9.37
2022-10-25T03:48:07.618Z,9.37
2022-10-25T03:58:09.081Z,9.50
2022-10-25T04:08:10.546Z,7.90
2022-10-25T04:18:12.017Z,18.03
2022-10-25T04:28:13.446Z,7.77
2022-10-25T04:38:14.923Z,7.33
2022-10-25T04:48:18.677Z,8.20
2022-10-25T04:58:21.144Z,7.40
2022-10-25T05:08:22.569Z,8.57
2022-10-25T05:18:24.313Z,9.27
2022-10-25T05:28:25.810Z,8.37
2022-10-25T05:38:33.006Z,7.60
2022-10-25T05:48:39.159Z,8.70
2022-10-25T05:58:41.667Z,10.20
2022-10-25T06:08:43.113Z,7.90
2022-10-25T06:18:45.309Z,8.17
2022-10-25T06:28:47.369Z,10.00
2022-10-25T06:38:49.534Z,9.63
2022-10-25T06:48:52.863Z,10.17
2022-10-25T06:58:55.297Z,6.80
2022-10-25T07:08:59.115Z,7.33
2022-10-25T07:19:02.647Z,4.70
2022-10-25T07:29:04.897Z,4.17
2022-10-25T07:39:06.553Z,3.40
2022-10-25T07:49:08.066Z,3.00
2022-10-25T07:59:09.546Z,2.93
2022-10-25T08:09:14.533Z,1.80
2022-10-25T08:19:16.615Z,1.60
2022-10-25T08:29:18.067Z,1.75
2022-10-25T08:39:19.537Z,2.00
2022-10-25T08:49:39.344Z,1.75
2022-10-25T08:59:44.479Z,1.63
2022-10-25T09:10:00.616Z,1.73
2022-10-25T09:20:27.548Z,1.63
2022-10-25T09:30:35.444Z,3.28
2022-10-25T09:40:53.935Z,1.30
2022-10-25T09:51:13.144Z,1.40
2022-10-25T10:01:21.424Z,1.60
2022-10-25T10:11:23.214Z,1.40
2022-10-25T10:21:25.935Z,3.22
2022-10-25T10:31:46.215Z,5.38
2022-10-25T10:42:19.264Z,4.20
2022-10-25T10:52:36.355Z,1.50
2022-10-25T11:02:41.114Z,3.83
2022-10-25T11:12:44.172Z,1.75
2022-10-25T11:23:10.644Z,6.33
2022-10-25T11:33:36.139Z,5.50
2022-10-25T11:43:58.953Z,4.70
2022-10-25T11:54:18.742Z,4.50
2022-10-25T12:04:39.515Z,4.47
2022-10-25T12:14:45.539Z,4.57
2022-10-25T12:24:52.812Z,5.07
2022-10-25T12:34:55.447Z,5.50
2022-10-25T12:45:24.167Z,5.60
2022-10-25T12:55:54.096Z,4.13
2022-10-25T13:06:23.907Z,4.77
2022-10-25T13:16:33.730Z,4.20
2022-10-25T13:27:13.688Z,4.53
2022-10-25T13:37:33.470Z,4.70
2022-10-25T13:47:48.561Z,5.00
2022-10-25T13:57:50.011Z,4.77
2022-10-25T14:07:51.628Z,3.80
2022-10-25T14:17:55.806Z,4.00
2022-10-25T14:28:09.763Z,4.00
2022-10-25T14:38:22.678Z,4.60
2022-10-25T14:48:24.264Z,4.43
2022-10-25T14:58:27.606Z,4.20
2022-10-25T15:08:30.427Z,4.57
2022-10-25T15:18:37.440Z,4.90
2022-10-25T15:28:50.341Z,4.83
2022-10-25T15:39:16.803Z,4.40
2022-10-25T15:49:19.008Z,4.93
2022-10-25T15:59:20.599Z,4.27
2022-10-25T16:09:22.114Z,2.80
2022-10-25T16:19:24.697Z,2.40
2022-10-25T16:29:26.221Z,3.53
2022-10-25T16:39:27.799Z,3.53
2022-10-25T16:49:29.351Z,3.03
2022-10-25T16:59:30.774Z,3.93
2022-10-25T17:09:32.254Z,2.50
2022-10-25T17:19:34.011Z,3.53
2022-10-25T17:29:35.504Z,3.17
2022-10-25T17:39:36.975Z,3.67
2022-10-25T17:49:39.363Z,5.30
2022-10-25T17:59:40.928Z,4.43
2022-10-25T18:09:42.351Z,5.23
2022-10-25T18:19:43.829Z,5.70
2022-10-25T18:29:45.330Z,6.57
2022-10-25T18:39:47.021Z,7.10
2022-10-25T18:49:48.805Z,6.60
2022-10-25T18:59:50.282Z,7.97
2022-10-25T19:09:51.792Z,9.00
2022-10-25T19:19:53.214Z,15.60
2022-10-25T19:29:54.720Z,10.30
2022-10-25T19:39:58.901Z,9.37
2022-10-25T19:50:01.359Z,9.13
2022-10-25T20:00:03.991Z,7.50
2022-10-25T20:10:08.183Z,6.80
2022-10-25T20:20:10.483Z,7.37
2022-10-25T20:30:12.011Z,6.90
2022-10-25T20:40:15.548Z,6.03
2022-10-25T20:50:17.440Z,6.47
2022-10-25T21:00:20.547Z,5.87
2022-10-25T21:10:22.225Z,6.00
2022-10-25T21:20:23.737Z,6.47
2022-10-25T21:30:25.356Z,6.03
2022-10-25T21:40:26.817Z,5.47
2022-10-25T21:50:28.248Z,5.73
2022-10-25T22:00:29.678Z,5.43
2022-10-25T22:10:31.458Z,5.60
2022-10-25T22:20:32.910Z,5.57
2022-10-25T22:30:34.374Z,5.50
2022-10-25T22:40:35.861Z,5.20
2022-10-25T22:50:37.306Z,4.67
2022-10-25T23:00:38.766Z,4.47
2022-10-25T23:10:40.305Z,4.20
2022-10-25T23:20:52.841Z,4.70
2022-10-25T23:30:54.352Z,4.30
2022-10-25T23:40:55.914Z,4.43
2022-10-25T23:51:07.263Z,4.50
